Time;durP1;ratioP1;P1;durP2;ratioP2;P2;SDS_P1;SDS_P2;PMS_P1;PMS_P2;Temp;Humidity;BMP_temperature;BMP_pressure;BME280_temperature;BME280_humidity;BME280_pressure;Samples;Min_cycle;Max_cycle;Signal;HPM_P1;HPM_P2
2022/12/22 03:27:32;;;;;;;3.43;1.27;;;9.70;99.90;;;9.97;100.00;97104.06;5087224;28;20456;-79
2022/12/22 03:30:02;;;;;;;1.47;0.97;;;9.70;99.90;;;9.97;100.00;97104.06;5092020;28;20455;-79
2022/12/22 03:32:33;;;;;;;7.80;1.10;;;9.60;99.90;;;9.94;100.00;97100.06;5092038;28;20496;-78
2022/12/22 03:35:04;;;;;;;1.73;1.57;;;9.60;99.90;;;9.97;100.00;97077.97;5093881;28;20459;-78
2022/12/22 03:37:35;;;;;;;1.00;0.90;;;9.60;99.90;;;9.97;100.00;97072.75;5091000;28;20454;-79
2022/12/22 03:40:10;;;;;;;5.33;0.90;;;9.60;99.90;;;9.99;100.00;97071.53;5092794;28;20542;-79
2022/12/22 03:48:15;;;;;;;3.00;1.00;;;9.70;99.90;;;9.97;100.00;97077.97;5082886;28;20446;-78
2022/12/22 03:50:47;;;;;;;1.20;1.10;;;9.70;99.90;;;9.98;100.00;97069.94;5095281;28;20843;-78
2022/12/22 03:53:16;;;;;;;1.00;0.90;;;9.60;99.90;;;9.97;100.00;97064.91;5095067;28;20498;-79
2022/12/22 03:55:47;;;;;;;1.83;1.23;;;9.50;99.90;;;10.00;100.00;97051.44;5093984;28;21045;-79
2022/12/22 03:58:16;;;;;;;2.70;0.90;;;9.60;99.90;;;9.98;100.00;97056.06;5097557;28;20454;-78
2022/12/22 04:00:45;;;;;;;1.43;1.17;;;9.70;99.90;;;9.96;100.00;97055.50;5094162;28;20546;-79
2022/12/22 04:03:15;;;;;;;2.90;1.63;;;9.60;99.90;;;9.96;100.00;97047.66;5090504;28;20462;-78
2022/12/22 04:05:46;;;;;;;1.00;0.70;;;9.60;99.90;;;9.98;100.00;97045.63;5094394;28;20451;-79
2022/12/22 04:08:17;;;;;;;0.87;0.80;;;9.70;99.90;;;9.97;100.00;97031.75;5088970;28;20503;-78
2022/12/22 04:13:47;;;;;;;24.17;12.30;;;9.60;99.90;;;9.96;100.00;97031.97;5001765;28;21045;-78
2022/12/22 04:16:17;;;;;;;2.80;0.97;;;9.60;99.90;;;9.98;100.00;97027.34;5003863;28;20470;-79
2022/12/22 04:18:47;;;;;;;8.50;5.40;;;9.70;99.90;;;9.97;100.00;97028.34;5044646;28;20510;-78
2022/12/22 04:21:19;;;;;;;3.57;1.07;;;9.70;99.90;;;9.99;100.00;97023.72;5091183;28;20550;-78
2022/12/22 04:23:50;;;;;;;2.77;1.00;;;9.70;99.90;;;9.97;100.00;97021.31;5091519;28;20451;-78
2022/12/22 04:26:19;;;;;;;65.00;37.03;;;9.70;99.90;;;9.99;100.00;97021.13;5092053;28;20465;-75
2022/12/22 04:28:50;;;;;;;3.47;2.53;;;9.70;99.90;;;9.96;100.00;97018.94;5084785;28;20488;-78
2022/12/22 04:31:22;;;;;;;1.33;1.23;;;9.60;99.90;;;9.98;100.00;97012.47;5087981;28;21041;-79
2022/12/22 04:33:53;;;;;;;0.70;0.70;;;9.60;99.90;;;9.96;100.00;97008.47;5090984;28;20491;-78
2022/12/22 04:36:24;;;;;;;2.40;1.73;;;9.60;99.90;;;9.97;100.00;97015.28;5092034;28;20942;-78
2022/12/22 04:38:55;;;;;;;0.80;0.80;;;9.60;99.90;;;9.97;100.00;97010.06;5093500;28;20494;-78
2022/12/22 04:41:24;;;;;;;1.00;0.90;;;9.70;99.90;;;9.96;100.00;97005.88;5092047;28;20544;-78
2022/12/22 04:43:53;;;;;;;1.80;1.00;;;9.60;99.90;;;9.97;100.00;97002.22;5090228;28;20523;-78
2022/12/22 04:46:23;;;;;;;67.87;34.97;;;9.60;99.90;;;9.96;100.00;97003.25;5086386;28;20464;-77
2022/12/22 04:48:54;;;;;;;3.60;2.20;;;9.60;99.90;;;9.96;100.00;97008.47;5082097;28;20459;-78
2022/12/22 04:51:29;;;;;;;1.77;0.90;;;9.60;99.90;;;9.98;100.00;97003.84;5093922;28;20507;-79
2022/12/22 04:53:59;;;;;;;2.30;1.07;;;9.70;99.90;;;10.01;100.00;97008.63;5092233;28;20500;-79
2022/12/22 04:56:30;;;;;;;3.77;0.90;;;9.70;99.90;;;10.02;100.00;97003.22;5089003;28;20467;-79
2022/12/22 04:59:00;;;;;;;0.80;0.80;;;9.70;99.90;;;10.01;100.00;97014.66;5088115;28;20982;-78
2022/12/22 05:01:30;;;;;;;109.40;58.10;;;9.70;99.90;;;10.03;100.00;97010.03;5090258;28;20460;-75
2022/12/22 05:04:00;;;;;;;2.40;1.13;;;9.70;99.90;;;10.07;100.00;97011.22;5087650;28;20465;-78
2022/12/22 05:06:31;;;;;;;1.30;0.93;;;9.80;99.90;;;10.11;100.00;97003.75;5090115;28;20462;-78
2022/12/22 05:09:02;;;;;;;1.23;0.93;;;9.90;99.90;;;10.11;100.00;97003.75;5092058;28;20477;-78
2022/12/22 05:11:32;;;;;;;0.70;0.70;;;9.80;99.90;;;10.12;100.00;97000.16;5092403;28;20463;-79
2022/12/22 05:14:01;;;;;;;1.10;1.00;;;9.90;99.90;;;10.10;100.00;97015.22;5090358;28;20467;-79
2022/12/22 05:16:35;;;;;;;1.50;1.10;;;9.80;99.90;;;10.11;100.00;97011.59;5092722;28;20472;-78
2022/12/22 05:19:05;;;;;;;0.87;0.80;;;9.80;99.90;;;10.13;100.00;97014.81;5093265;28;20463;-78
2022/12/22 05:21:36;;;;;;;1.77;1.00;;;9.80;99.90;;;10.15;100.00;97002.38;5091490;28;20462;-79
2022/12/22 05:24:07;;;;;;;0.80;0.70;;;9.90;99.90;;;10.19;100.00;97005.38;5090622;28;20463;-80
2022/12/22 05:26:37;;;;;;;1.27;1.00;;;9.90;99.90;;;10.18;100.00;97007.16;5093013;28;20534;-78
2022/12/22 05:29:09;;;;;;;1.57;0.80;;;9.90;99.90;;;10.23;100.00;97006.53;5092889;28;20498;-79
2022/12/22 05:31:39;;;;;;;18.13;10.10;;;9.90;99.90;;;10.23;100.00;97001.31;5090359;28;20460;-79
2022/12/22 05:34:14;;;;;;;4.30;1.00;;;9.90;99.90;;;10.25;100.00;97000.09;5092352;28;20439;-79
2022/12/22 05:36:46;;;;;;;1.13;0.90;;;10.00;99.90;;;10.27;100.00;97012.97;5091607;28;20447;-78
2022/12/22 05:39:14;;;;;;;3.37;1.10;;;10.00;99.90;;;10.27;100.00;97020.81;5096040;28;20498;-78
2022/12/22 05:41:44;;;;;;;1.00;0.70;;;9.90;99.90;;;10.30;100.00;97005.50;5092711;28;20542;-79
2022/12/22 05:44:14;;;;;;;1.77;0.97;;;10.00;99.90;;;10.28;100.00;97012.72;5089811;28;20466;-79
2022/12/22 05:46:43;;;;;;;2.07;0.90;;;10.00;99.90;;;10.30;100.00;97012.53;5093619;28;20882;-78
2022/12/22 05:49:14;;;;;;;2.60;1.47;;;10.00;99.90;;;10.27;100.00;97007.75;5095349;28;20466;-79
2022/12/22 05:51:46;;;;;;;3.20;1.17;;;10.00;99.90;;;10.28;100.00;97009.31;5093021;28;20574;-78
2022/12/22 05:54:16;;;;;;;1.40;1.00;;;9.90;99.90;;;10.29;100.00;96996.06;5088452;28;20499;-78
2022/12/22 05:56:46;;;;;;;2.67;1.10;;;10.00;99.90;;;10.32;100.00;97003.47;5093469;28;20460;-79
2022/12/22 05:59:16;;;;;;;9.63;1.30;;;10.00;99.90;;;10.32;100.00;97011.31;5093471;28;20565;-79
2022/12/22 06:01:46;;;;;;;3.03;0.97;;;10.00;99.90;;;10.31;100.00;97001.84;5091026;28;20558;-79
2022/12/22 06:04:15;;;;;;;4.57;1.80;;;10.00;99.90;;;10.31;100.00;96995.84;5092641;28;20451;-79
2022/12/22 06:06:46;;;;;;;8.87;2.00;;;10.00;99.90;;;10.30;100.00;96991.63;5091602;28;20463;-78
2022/12/22 06:09:16;;;;;;;5.50;1.17;;;10.00;99.90;;;10.35;100.00;97002.25;5095401;28;20846;-79
2022/12/22 06:11:45;;;;;;;4.43;1.47;;;10.10;99.90;;;10.30;100.00;97002.88;5089138;28;20466;-79
2022/12/22 06:14:16;;;;;;;8.63;1.60;;;10.00;99.90;;;10.32;100.00;97005.28;5089609;28;20491;-79
2022/12/22 06:16:46;;;;;;;9.23;1.63;;;10.00;99.90;;;10.32;100.00;97002.66;5088813;28;20578;-79
2022/12/22 06:19:16;;;;;;;11.80;1.70;;;10.00;99.90;;;10.32;100.00;96998.25;5088913;28;20516;-79
2022/12/22 06:21:47;;;;;;;4.80;1.80;;;10.00;99.90;;;10.30;100.00;97000.28;5088033;28;20455;-78
2022/12/22 06:24:18;;;;;;;6.90;1.90;;;9.90;99.90;;;10.30;100.00;97005.50;5089512;28;20470;-79
2022/12/22 06:26:48;;;;;;;4.70;1.10;;;9.90;99.90;;;10.29;100.00;97003.91;5087551;28;20459;-79
2022/12/22 06:29:19;;;;;;;5.37;1.40;;;9.90;99.90;;;10.28;100.00;97010.13;5087215;28;20490;-79
2022/12/22 06:31:49;;;;;;;3.10;1.20;;;9.90;99.90;;;10.31;100.00;96986.19;5087424;28;20862;-78
2022/12/22 06:34:20;;;;;;;5.30;1.40;;;10.00;99.90;;;10.30;100.00;96983.78;5086830;28;20491;-79
2022/12/22 06:36:51;;;;;;;6.57;1.37;;;10.00;99.90;;;10.30;100.00;96984.59;5087238;28;20463;-79
2022/12/22 06:39:22;;;;;;;1.40;1.20;;;10.00;99.90;;;10.31;100.00;96974.97;5089175;28;20490;-78
2022/12/22 06:44:40;;;;;;;2.37;1.50;;;10.00;99.90;;;10.25;100.00;97000.09;5087519;28;20543;-78
2022/12/22 06:47:10;;;;;;;3.53;1.30;;;9.90;99.90;;;10.26;100.00;96993.88;5090200;28;20454;-78
2022/12/22 06:49:41;;;;;;;2.60;1.50;;;9.90;99.90;;;10.25;100.00;96991.44;5089557;28;20456;-79
2022/12/22 06:52:12;;;;;;;7.27;1.30;;;9.90;99.90;;;10.28;100.00;96991.03;5091371;28;20898;-79
2022/12/22 06:54:44;;;;;;;5.60;1.10;;;10.00;99.90;;;10.27;100.00;96995.47;5085429;28;20479;-78
2022/12/22 06:57:14;;;;;;;6.90;1.00;;;9.90;99.90;;;10.29;100.00;96996.06;5087176;28;20462;-78
2022/12/22 06:59:44;;;;;;;1.40;1.20;;;9.90;99.90;;;10.30;100.00;97008.13;5090865;28;20530;-79
2022/12/22 07:02:13;;;;;;;1.60;1.10;;;10.00;99.90;;;10.26;100.00;97003.50;5091719;28;20459;-78
2022/12/22 07:04:44;;;;;;;1.40;0.83;;;9.90;99.90;;;10.29;100.00;97000.47;5092928;28;20825;-78
2022/12/22 07:07:15;;;;;;;1.77;0.97;;;10.00;99.90;;;10.29;100.00;97003.91;5094426;28;21021;-78
2022/12/22 07:09:45;;;;;;;5.30;1.43;;;10.00;99.90;;;10.27;100.00;97011.16;5098221;28;20459;-79
2022/12/22 07:12:15;;;;;;;1.87;1.07;;;10.00;99.90;;;10.30;100.00;96999.47;5096185;28;21065;-79
2022/12/22 07:14:45;;;;;;;2.30;0.90;;;10.00;99.90;;;10.27;100.00;96995.47;5098704;28;20497;-79
2022/12/22 07:17:15;;;;;;;4.43;1.30;;;10.00;99.90;;;10.30;100.00;96989.81;5092730;28;20494;-78
2022/12/22 07:19:46;;;;;;;2.50;1.10;;;10.00;99.90;;;10.27;100.00;97000.69;5097124;28;20471;-78
2022/12/22 07:22:17;;;;;;;3.37;1.73;;;10.00;99.90;;;10.27;100.00;96999.91;5096788;28;21128;-79
2022/12/22 07:24:54;;;;;;;5.50;1.10;;;10.00;99.90;;;10.23;100.00;97009.16;5094365;28;20523;-78
2022/12/22 07:27:25;;;;;;;1.53;0.93;;;9.90;99.90;;;10.27;100.00;97021.59;5095412;28;20460;-79
2022/12/22 07:29:55;;;;;;;4.80;1.30;;;9.90;99.90;;;10.26;100.00;97008.75;5095799;28;20458;-79
2022/12/22 07:32:25;;;;;;;2.17;1.10;;;9.90;99.90;;;10.27;100.00;97020.81;5093329;28;20468;-78
2022/12/22 07:34:55;;;;;;;5.70;1.40;;;9.90;99.90;;;10.29;100.00;97022.19;5094016;28;20482;-78
2022/12/22 07:37:34;;;;;;;8.47;1.70;;;10.00;99.90;;;10.28;100.00;97046.69;5091582;28;20458;-79
2022/12/22 07:40:03;;;;;;;13.60;1.93;;;10.00;99.90;;;10.27;100.00;97037.28;5094467;28;20458;-78
2022/12/22 07:42:45;;;;;;;7.67;1.67;;;10.00;99.90;;;10.27;100.00;97036.47;5090416;28;20466;-79
2022/12/22 07:45:17;;;;;;;6.03;1.80;;;9.90;99.90;;;10.28;100.00;97036.25;5093173;28;20988;-78
2022/12/22 07:47:48;;;;;;;3.03;1.10;;;9.90;99.90;;;10.32;100.00;97034.03;5095580;28;20547;-78
2022/12/22 07:50:26;;;;;;;5.07;1.63;;;10.00;99.90;;;10.32;100.00;97023.56;5094393;28;20562;-79
2022/12/22 07:53:00;;;;;;;8.30;2.00;;;10.00;99.90;;;10.33;100.00;97027.78;5090906;28;21016;-79
2022/12/22 07:55:36;;;;;;;7.90;1.57;;;10.00;99.90;;;10.32;100.00;97029.59;5093009;28;20454;-79
2022/12/22 07:58:06;;;;;;;8.77;1.70;;;10.00;99.90;;;10.31;100.00;97030.59;5093665;28;20454;-78
2022/12/22 08:00:36;;;;;;;3.70;1.50;;;10.00;99.90;;;10.31;100.00;97024.59;5093813;28;20466;-78
2022/12/22 08:03:07;;;;;;;7.43;1.53;;;9.90;99.90;;;10.29;100.00;97022.19;5094826;28;20471;-79
2022/12/22 08:05:39;;;;;;;5.30;1.53;;;9.90;99.90;;;10.31;100.00;97035.81;5093939;28;20550;-78
2022/12/22 08:08:10;;;;;;;4.57;2.03;;;9.90;99.90;;;10.32;100.00;97034.03;5094599;28;20569;-78
2022/12/22 08:10:40;;;;;;;2.23;1.23;;;10.00;99.90;;;10.30;100.00;97039.47;5094745;28;20870;-79
2022/12/22 08:13:10;;;;;;;5.87;1.80;;;10.00;99.90;;;10.29;100.00;97035.25;5091968;28;20470;-79
2022/12/22 08:15:40;;;;;;;4.60;1.63;;;10.00;99.90;;;10.31;100.00;97040.28;5094534;28;20830;-78
2022/12/22 08:18:09;;;;;;;5.53;1.60;;;10.00;99.90;;;10.27;100.00;97046.94;5095190;28;20503;-78
2022/12/22 08:20:39;;;;;;;7.80;1.57;;;9.90;99.90;;;10.28;100.00;97049.31;5090610;28;20460;-79
2022/12/22 08:23:11;;;;;;;7.60;1.80;;;9.90;99.90;;;10.28;100.00;97046.69;5093733;28;20491;-79
2022/12/22 08:25:42;;;;;;;5.13;1.43;;;10.00;99.90;;;10.31;100.00;97042.88;5093267;28;20491;-79
2022/12/22 08:28:14;;;;;;;6.93;1.50;;;10.00;99.90;;;10.29;100.00;97047.50;5091823;28;20953;-79
2022/12/22 08:30:44;;;;;;;2.27;1.43;;;10.00;99.90;;;10.26;100.00;97056.56;5094265;28;21015;-79
2022/12/22 08:33:15;;;;;;;4.23;1.00;;;9.90;99.90;;;10.30;100.00;97057.75;5093308;28;20456;-78
2022/12/22 08:35:45;;;;;;;6.10;1.20;;;10.00;99.90;;;10.26;100.00;97061.00;5091147;28;20554;-78
2022/12/22 08:38:16;;;;;;;1.90;1.10;;;10.00;99.90;;;10.25;100.00;97060.19;5088417;28;20892;-78
2022/12/22 08:40:48;;;;;;;6.07;1.30;;;9.90;99.90;;;10.23;100.00;97064.84;5094709;28;21026;-79
2022/12/22 08:43:18;;;;;;;1.73;0.93;;;9.90;99.90;;;10.24;100.00;97068.25;5092217;28;20499;-78
2022/12/22 08:45:47;;;;;;;2.93;1.20;;;9.90;99.90;;;10.25;100.00;97072.44;5094017;28;20455;-78
2022/12/22 08:48:18;;;;;;;1.90;1.00;;;9.90;99.90;;;10.26;100.00;97074.06;5095721;28;20467;-78
2022/12/22 08:50:48;;;;;;;3.77;1.00;;;9.90;99.90;;;10.26;100.00;97077.47;5094999;28;20514;-79
2022/12/22 08:53:19;;;;;;;4.20;1.00;;;10.00;99.90;;;10.25;100.00;97078.47;5092999;28;20459;-79
2022/12/22 08:56:09;;;;;;;1.07;0.90;;;9.90;99.90;;;10.20;100.00;97085.34;5094152;28;20844;-78
2022/12/22 08:58:40;;;;;;;3.23;1.30;;;9.80;99.90;;;10.23;100.00;97075.28;5093654;28;20538;-78
2022/12/22 09:01:17;;;;;;;1.63;0.97;;;9.90;99.90;;;10.23;100.00;97082.31;5090715;28;20958;-78
2022/12/22 09:03:50;;;;;;;4.00;1.60;;;9.90;99.90;;;10.24;100.00;97092.53;5088603;28;21033;-78
2022/12/22 09:06:22;;;;;;;4.60;1.33;;;9.90;99.90;;;10.25;100.00;97094.16;5091696;28;20878;-78
2022/12/22 09:08:59;;;;;;;2.30;1.00;;;9.90;99.90;;;10.24;100.00;97097.00;5090545;28;20463;-78
2022/12/22 09:11:30;;;;;;;1.67;0.80;;;9.90;99.90;;;10.22;100.00;97109.44;5092189;28;20546;-78
2022/12/22 09:14:02;;;;;;;1.27;1.10;;;9.80;99.90;;;10.23;100.00;97111.84;5089411;28;20534;-78
2022/12/22 09:16:33;;;;;;;3.57;1.70;;;9.80;99.90;;;10.24;100.00;97118.66;5091223;28;20471;-78
2022/12/22 09:19:05;;;;;;;7.83;1.20;;;9.80;99.90;;;10.25;100.00;97122.88;5089210;28;20830;-78
2022/12/22 09:21:36;;;;;;;1.77;0.90;;;9.90;99.90;;;10.24;100.00;97123.88;5091319;28;20550;-78
2022/12/22 09:24:09;;;;;;;3.27;1.33;;;9.90;99.90;;;10.23;100.00;97147.63;5092848;28;20494;-78
2022/12/22 09:26:39;;;;;;;3.07;1.10;;;9.80;99.90;;;10.27;100.00;97154.84;5095440;28;20455;-78
2022/12/22 09:29:09;;;;;;;1.57;0.90;;;10.00;99.90;;;10.23;100.00;97161.50;5093037;28;20985;-78
2022/12/22 09:31:40;;;;;;;1.23;0.97;;;9.90;99.90;;;10.27;100.00;97173.16;5091101;28;20459;-78
2022/12/22 09:34:11;;;;;;;1.20;0.93;;;9.90;99.90;;;10.27;100.00;97190.63;5094191;28;21064;-78
2022/12/22 09:36:46;;;;;;;4.13;1.00;;;9.90;99.90;;;10.26;100.00;97194.25;5090184;28;20451;-78
2022/12/22 09:39:17;;;;;;;2.30;1.20;;;9.80;99.90;;;10.29;100.00;97201.66;5094528;28;20458;-77
2022/12/22 09:41:57;;;;;;;2.50;1.10;;;9.90;99.90;;;10.25;100.00;97213.53;5091687;28;20974;-78
2022/12/22 09:44:31;;;;;;;2.20;1.07;;;9.80;99.90;;;10.27;100.00;97222.78;5090510;28;20462;-79
2022/12/22 09:47:10;;;;;;;0.80;0.80;;;9.90;99.90;;;10.24;100.00;97232.84;5090782;28;20505;-78
2022/12/22 09:49:39;;;;;;;2.37;1.00;;;9.80;99.90;;;10.28;100.00;97236.63;5092444;28;20455;-78
2022/12/22 09:52:28;;;;;;;0.80;0.73;;;9.90;99.90;;;10.25;100.00;97248.31;5090004;28;20456;-78
2022/12/22 09:54:59;;;;;;;1.47;0.80;;;9.90;99.90;;;10.25;100.00;97244.88;5092155;28;20545;-78
2022/12/22 09:57:32;;;;;;;0.93;0.77;;;9.90;99.90;;;10.23;100.00;97252.13;5090518;28;20452;-79
2022/12/22 10:00:13;;;;;;;0.80;0.70;;;9.80;99.90;;;10.27;100.00;97264.59;5091006;28;20466;-78
2022/12/22 10:02:58;;;;;;;2.83;0.80;;;9.90;99.90;;;10.24;100.00;97259.75;5087224;28;20499;-79
2022/12/22 10:05:39;;;;;;;0.93;0.70;;;9.90;99.90;;;10.29;100.00;97267.78;5094077;28;20521;-78
2022/12/22 10:08:14;;;;;;;0.70;0.70;;;9.90;99.90;;;10.25;100.00;97269.22;5090912;28;20864;-78
2022/12/22 10:10:46;;;;;;;0.90;0.70;;;9.90;99.90;;;10.23;100.00;97265.19;5092772;28;20450;-79
2022/12/22 10:13:20;;;;;;;0.70;0.70;;;9.90;99.90;;;10.23;100.00;97265.19;5091693;28;20498;-78
2022/12/22 10:15:50;;;;;;;0.70;0.70;;;9.90;99.90;;;10.23;100.00;97280.88;5088099;28;20581;-79
2022/12/22 10:18:24;;;;;;;0.70;0.70;;;9.90;99.90;;;10.24;100.00;97280.66;5089441;28;20459;-78
2022/12/22 10:21:11;;;;;;;0.70;0.70;;;9.90;99.90;;;10.23;100.00;97286.91;5090635;28;20505;-78
2022/12/22 10:23:46;;;;;;;0.80;0.60;;;9.90;99.90;;;10.23;100.00;97292.13;5092503;28;20650;-78
2022/12/22 10:26:22;;;;;;;0.90;0.70;;;9.80;99.90;;;10.19;100.00;97290.94;5092006;28;21238;-78
2022/12/22 10:29:06;;;;;;;0.70;0.60;;;9.80;99.90;;;10.11;100.00;97298.94;5091499;28;20467;-78
2022/12/22 10:31:38;;;;;;;1.00;0.70;;;9.70;99.90;;;10.13;100.00;97304.78;5093883;28;21052;-79
2022/12/22 10:34:14;;;;;;;0.70;0.60;;;9.80;99.90;;;10.11;100.00;97309.38;5091200;28;20471;-78
2022/12/22 10:36:49;;;;;;;0.97;0.90;;;9.80;99.90;;;10.12;100.00;97300.56;5093148;28;20580;-79
2022/12/22 10:39:23;;;;;;;1.23;0.80;;;9.80;99.90;;;10.13;100.00;97317.03;5092423;28;20467;-78
2022/12/22 10:42:00;;;;;;;1.00;0.80;;;9.70;99.90;;;10.13;100.00;97317.03;5091948;28;20475;-78
2022/12/22 10:44:33;;;;;;;0.70;0.60;;;9.70;99.90;;;10.11;100.00;97322.44;5091359;28;20458;-79
2022/12/22 10:47:15;;;;;;;0.90;0.80;;;9.80;99.90;;;10.11;100.00;97319.84;5090039;28;20460;-78
2022/12/22 10:49:50;;;;;;;0.90;0.90;;;9.80;99.90;;;10.12;100.00;97324.06;5091723;28;20484;-78
2022/12/22 10:52:23;;;;;;;1.47;0.97;;;9.80;99.90;;;10.11;100.00;97322.44;5086111;28;20478;-78
2022/12/22 10:55:17;;;;;;;0.80;0.70;;;9.80;99.90;;;10.11;100.00;97331.09;5089191;28;20485;-80
2022/12/22 10:57:47;;;;;;;0.70;0.60;;;9.80;99.90;;;10.13;100.00;97333.50;5091990;28;20474;-78
2022/12/22 11:00:27;;;;;;;0.80;0.70;;;9.70;99.90;;;10.13;100.00;97337.94;5092257;28;20455;-78
2022/12/22 11:02:59;;;;;;;0.70;0.70;;;9.80;99.90;;;10.10;100.00;97349.56;5091307;28;20462;-78
2022/12/22 11:05:29;;;;;;;0.80;0.80;;;9.70;99.90;;;10.10;100.00;97354.78;5091123;28;20455;-79
2022/12/22 11:08:10;;;;;;;1.27;0.80;;;9.70;99.90;;;10.09;100.00;97355.81;5090855;28;20516;-78
2022/12/22 11:10:50;;;;;;;1.03;0.70;;;9.70;99.90;;;10.10;100.00;97373.06;5092347;28;20490;-78
2022/12/22 11:13:56;;;;;;;1.43;0.80;;;9.70;99.90;;;10.02;100.00;97383.75;5092366;28;20550;-78
2022/12/22 11:16:37;;;;;;;0.97;0.87;;;9.70;99.90;;;10.03;100.00;97387.97;5088184;28;20488;-78
2022/12/22 11:19:43;;;;;;;0.60;0.60;;;9.60;99.90;;;10.01;100.00;97398.59;5090625;28;20455;-79
2022/12/22 11:22:31;;;;;;;1.20;0.70;;;9.50;99.90;;;10.03;100.00;97399.19;5093080;28;20524;-79
2022/12/22 11:25:25;;;;;;;0.70;0.70;;;9.60;99.90;;;10.03;100.00;97408.88;5093806;28;20506;-79
2022/12/22 11:28:16;;;;;;;0.70;0.70;;;9.60;99.90;;;10.06;100.00;97411.06;5090341;28;20913;-78
2022/12/22 11:31:07;;;;;;;1.10;1.00;;;9.60;99.90;;;10.04;100.00;97410.44;5094159;28;21070;-79
2022/12/22 11:33:58;;;;;;;4.00;1.13;;;9.60;99.90;;;10.05;100.00;97414.69;5090385;28;20464;-79
2022/12/22 11:36:39;;;;;;;1.27;0.80;;;9.60;99.90;;;10.04;100.00;97424.31;5094574;28;20510;-79
2022/12/22 11:39:15;;;;;;;0.77;0.70;;;9.70;99.90;;;10.05;100.00;97418.09;5091323;28;20493;-79
2022/12/22 11:42:09;;;;;;;0.70;0.70;;;9.70;99.90;;;10.02;100.00;97425.53;5089253;28;20579;-79
2022/12/22 11:44:49;;;;;;;2.87;0.73;;;9.60;99.90;;;10.05;100.00;97430.34;5088397;28;20567;-79
2022/12/22 11:47:35;;;;;;;0.93;0.70;;;9.60;99.90;;;9.97;100.00;97430.53;5093187;28;20530;-79
2022/12/22 11:50:33;;;;;;;0.80;0.70;;;9.50;99.90;;;9.98;100.00;97435.56;5093758;28;20566;-79
2022/12/22 11:53:55;;;;;;;1.00;0.80;;;9.50;99.90;;;10.02;100.00;97431.56;5092745;28;20455;-79
2022/12/22 11:56:32;;;;;;;0.70;0.70;;;9.50;99.90;;;10.01;100.00;97436.97;5094956;28;20541;-79
2022/12/22 11:59:35;;;;;;;0.80;0.70;;;9.70;99.90;;;10.02;100.00;97438.59;5097021;28;20462;-79
2022/12/22 12:03:13;;;;;;;0.83;0.83;;;9.70;99.90;;;10.02;100.00;97441.19;5094766;28;20472;-78
2022/12/22 12:06:33;;;;;;;1.47;0.83;;;9.70;99.90;;;9.94;100.00;97439.56;5015683;28;20972;-79
2022/12/22 12:09:43;;;;;;;1.60;0.87;;;9.60;99.90;;;9.94;100.00;97457.03;5092418;28;21009;-79
2022/12/22 12:12:25;;;;;;;0.93;0.90;;;9.60;99.90;;;9.89;100.00;97454.22;5095661;28;20466;-79
2022/12/22 12:15:17;;;;;;;0.70;0.70;;;9.50;99.90;;;9.81;100.00;97457.00;5094883;28;20463;-79
2022/12/22 12:18:08;;;;;;;1.10;1.00;;;9.40;99.90;;;9.85;100.00;97463.47;5092092;28;20558;-79
2022/12/22 12:20:58;;;;;;;2.17;1.00;;;9.50;99.90;;;9.85;100.00;97455.63;5091749;28;20837;-79
2022/12/22 12:23:58;;;;;;;1.10;1.00;;;9.50;99.90;;;9.80;100.00;97450.16;5094420;28;20851;-79
2022/12/22 12:26:34;;;;;;;1.00;0.83;;;9.40;99.90;;;9.83;100.00;97452.38;5094454;28;20591;-79
2022/12/22 12:29:16;;;;;;;2.70;1.10;;;9.50;99.90;;;9.76;100.00;97452.38;5092873;28;20553;-79
2022/12/22 12:31:55;;;;;;;1.93;0.97;;;9.40;99.90;;;9.83;100.00;97462.84;5093057;28;20489;-78
2022/12/22 12:34:30;;;;;;;0.90;0.90;;;9.50;99.90;;;9.86;100.00;97462.44;5091621;28;20459;-79
2022/12/22 12:37:12;;;;;;;1.17;0.90;;;9.50;99.90;;;9.85;100.00;97471.28;5090035;28;20575;-79
2022/12/22 12:39:57;;;;;;;0.80;0.80;;;9.50;99.90;;;9.86;100.00;97468.47;5090914;28;20459;-79
2022/12/22 12:42:33;;;;;;;0.87;0.87;;;9.50;99.90;;;9.86;100.00;97467.66;5090048;28;20455;-79
2022/12/22 12:45:04;;;;;;;2.53;2.00;;;9.40;99.90;;;9.90;100.00;97459.25;5092498;28;20458;-79
2022/12/22 12:47:34;;;;;;;3.13;0.90;;;9.50;99.90;;;9.86;100.00;97462.44;5090398;28;20459;-79
2022/12/22 12:50:33;;;;;;;2.37;0.90;;;9.40;99.90;;;9.88;100.00;97460.44;5089409;28;21474;-79
2022/12/22 12:53:10;;;;;;;0.80;0.80;;;9.50;99.90;;;9.86;100.00;97465.03;5106921;27;20463;-78
2022/12/22 12:56:07;;;;;;;1.30;1.20;;;9.50;99.90;;;9.87;100.00;97464.88;5091275;28;20466;-78
2022/12/22 12:58:53;;;;;;;2.07;1.20;;;9.50;99.90;;;9.90;100.00;97466.28;5092232;28;20458;-78
2022/12/22 13:02:00;;;;;;;0.80;0.77;;;9.50;99.90;;;9.93;100.00;97451.00;5087568;28;20533;-78
2022/12/22 13:05:14;;;;;;;4.23;1.03;;;9.60;99.90;;;9.95;100.00;97448.22;5095226;28;20466;-78
2022/12/22 13:08:19;;;;;;;1.50;1.10;;;9.60;99.90;;;9.99;100.00;97450.25;5095977;28;20835;-78
2022/12/22 13:11:32;;;;;;;0.90;0.90;;;9.70;99.90;;;9.99;100.00;97465.09;5096316;28;20986;-78
2022/12/22 13:14:57;;;;;;;2.23;1.17;;;9.60;99.90;;;10.02;100.00;97472.53;5092332;28;20455;-79
2022/12/22 13:17:40;;;;;;;1.87;1.07;;;9.70;99.90;;;10.00;100.00;97472.72;5095427;28;20481;-80
2022/12/22 13:20:18;;;;;;;1.13;1.00;;;9.70;99.90;;;10.03;100.00;97482.00;5092507;28;20516;-78
2022/12/22 13:22:53;;;;;;;1.33;1.00;;;9.70;99.90;;;10.03;100.00;97468.94;5092073;28;20555;-77
2022/12/22 13:25:28;;;;;;;0.87;0.87;;;9.70;99.90;;;10.03;100.00;97464.50;5094411;28;20504;-78
2022/12/22 13:27:59;;;;;;;3.33;0.90;;;9.80;99.90;;;10.00;100.00;97464.91;5089612;28;20530;-78
2022/12/22 13:30:30;;;;;;;0.90;0.90;;;9.70;99.90;;;9.95;100.00;97456.84;5093552;28;20595;-78
2022/12/22 13:33:01;;;;;;;1.00;0.90;;;9.60;99.90;;;9.93;100.00;97458.03;5092842;28;20469;-78
2022/12/22 13:35:38;;;;;;;1.00;0.93;;;9.60;99.90;;;9.87;100.00;97458.84;5094834;28;20458;-77
2022/12/22 13:38:30;;;;;;;0.80;0.80;;;9.50;99.90;;;9.91;100.00;97460.06;5092212;28;20491;-78
2022/12/22 13:41:13;;;;;;;1.00;0.90;;;9.60;99.90;;;9.90;100.00;97455.81;5092295;28;20464;-79
2022/12/22 13:43:57;;;;;;;0.83;0.80;;;9.60;99.90;;;9.90;100.00;97456.63;5090735;28;20463;-78
2022/12/22 13:46:28;;;;;;;0.80;0.80;;;9.60;99.90;;;9.90;100.00;97461.03;5089246;28;20507;-78
2022/12/22 13:49:01;;;;;;;0.90;0.90;;;9.50;99.90;;;9.88;100.00;97455.22;5092275;28;20987;-78
2022/12/22 13:51:35;;;;;;;1.37;1.20;;;9.50;99.90;;;9.86;100.00;97465.84;5092923;28;20534;-78
2022/12/22 13:54:16;;;;;;;1.17;1.07;;;9.40;99.90;;;9.81;100.00;97475.28;5092588;28;20512;-79
2022/12/22 13:56:51;;;;;;;1.10;1.00;;;9.40;99.90;;;9.79;100.00;97472.09;5092003;28;20482;-78
2022/12/22 13:59:31;;;;;;;1.30;1.20;;;9.30;99.90;;;9.78;100.00;97476.50;5088739;28;20455;-79
2022/12/22 14:02:13;;;;;;;4.20;2.10;;;9.20;99.90;;;9.76;100.00;97472.44;5091387;28;20463;-76
2022/12/22 14:05:01;;;;;;;4.10;1.70;;;9.40;99.90;;;9.78;100.00;97470.47;5091273;28;20461;-78
2022/12/22 14:07:32;;;;;;;3.23;1.40;;;9.30;99.90;;;9.77;100.00;97479.28;5091283;28;20459;-78
2022/12/22 14:10:01;;;;;;;1.23;1.00;;;9.30;99.90;;;9.77;100.00;97485.31;5088044;28;21035;-78
2022/12/22 14:12:39;;;;;;;0.90;0.90;;;9.30;99.90;;;9.76;100.00;97477.66;5086913;28;20499;-79
2022/12/22 14:15:19;;;;;;;5.83;1.00;;;9.30;99.90;;;9.77;100.00;97476.69;5088352;28;20532;-78
2022/12/22 14:17:48;;;;;;;1.70;1.03;;;9.30;99.90;;;9.75;100.00;97476.09;5087720;28;20552;-78
2022/12/22 14:20:28;;;;;;;1.00;0.80;;;9.30;99.90;;;9.77;100.00;97480.09;5089575;28;20455;-78
2022/12/22 14:23:03;;;;;;;1.50;1.40;;;9.40;99.90;;;9.75;100.00;97476.09;5087038;28;20861;-79
2022/12/22 14:25:39;;;;;;;1.83;1.23;;;9.30;99.90;;;9.75;100.00;97474.28;5087543;28;20503;-78
2022/12/22 14:28:21;;;;;;;1.10;1.00;;;9.30;99.90;;;9.75;100.00;97471.66;5089224;28;20459;-78
2022/12/22 14:30:57;;;;;;;1.30;1.20;;;9.20;99.90;;;9.72;100.00;97479.09;5089150;28;20966;-78
2022/12/22 14:33:31;;;;;;;2.57;0.90;;;9.20;99.90;;;9.72;100.00;97472.03;5086569;28;20454;-78
2022/12/22 14:36:23;;;;;;;3.80;0.93;;;9.20;99.90;;;9.75;100.00;97476.09;5092794;28;20557;-78